Pagina principale
METAR-TAF:

METAR-TAF

Aeroporti :

Aeroporto di Latina

Latina, Italia

latitudine: 41-33N, longitudine: 012-54E, altezza: 25 m

METAR: mancante

Ora: 02:04 (00:04 UTC)

Previsione

Il bollettino è stato emesso 10 ore e 4 minuti fa, alle 14:00 UTC
Previsione valida dal 14 alle 15 UTC al 14 alle 24 UTC
Vento 3 kt da direzioni variabili
Visibilità 10 km o più
Nubi sparse ad un'altezza di 2500 ft
Nubi sparse ad un'altezza di 4000 ft
Temporaneamente
dal 14 alle 16 UTC al 14 alle 24 UTC
Poco nuvoloso ad un'altezza di 2000 ft, Cumulo congesto.
pioggia
Probabilità 30% :
Temporaneamente
dal 14 alle 19 UTC al 14 alle 23 UTC
Visibilità: 4000 m
Nubi sparse ad un'altezza di 2000 ft, Cumulonembo.
Nuvoloso ad un'altezza di 4000 ft
temporale, pioggia, foschia

TAF: LIRL 141400Z 1415/1424 VRB03KT 9999 SCT025 SCT040 TEMPO 1416/1424 RA FEW020TCU PROB30 TEMPO 1419/1423 4000 TSRA BR SCT020CB BKN040

Osservazioni e previsioni meteorologiche di più di 4000 aeroporti (messaggi METAR e TAF).

Le stazioni disponibili sono rappresentate dai dischi gialli e rossi sulla carta.

Puntare il mouse per vedere il nome della stazione.

Clicca sopra per visualizzare le osservazioni e previsioni meteorologiche.

Per cambiare la mappa : fare clic sui pulsanti verdi con una croce nera per ingrandire, il pulsante verde con un trattino per diminuire, o sulla freccia verde per le mappe adiacenti.


METAR-TAF: